createdAt,value
2022-10-12T00:00:51.910Z,73.80
2022-10-12T00:03:54.160Z,73.80
2022-10-12T00:06:56.737Z,73.80
2022-10-12T00:09:58.957Z,73.70
2022-10-12T00:13:01.121Z,73.80
2022-10-12T00:16:09.129Z,74.40
2022-10-12T00:19:13.344Z,73.70
2022-10-12T00:22:15.598Z,73.70
2022-10-12T00:25:17.855Z,73.70
2022-10-12T00:28:20.230Z,73.70
2022-10-12T00:31:22.437Z,73.80
2022-10-12T00:34:24.573Z,73.70
2022-10-12T00:37:26.682Z,73.70
2022-10-12T00:40:28.831Z,73.80
2022-10-12T00:43:39.167Z,73.60
2022-10-12T00:46:45.248Z,73.70
2022-10-12T00:49:56.439Z,73.60
2022-10-12T00:53:14.360Z,73.70
2022-10-12T00:56:22.593Z,73.70
2022-10-12T00:59:32.824Z,73.70
2022-10-12T01:02:37.507Z,73.60
2022-10-12T01:05:42.883Z,73.60
2022-10-12T01:08:46.203Z,73.60
2022-10-12T01:11:48.755Z,73.60
2022-10-12T01:14:51.215Z,73.60
2022-10-12T01:18:25.311Z,73.60
2022-10-12T01:21:27.766Z,73.50
2022-10-12T01:24:42.611Z,73.50
2022-10-12T01:27:55.629Z,73.60
2022-10-12T01:31:05.040Z,73.60
2022-10-12T01:34:13.190Z,73.60
2022-10-12T01:37:27.754Z,73.50
2022-10-12T01:40:37.492Z,73.50
2022-10-12T01:43:43.685Z,73.60
2022-10-12T01:46:46.347Z,73.50
2022-10-12T01:49:48.520Z,73.50
2022-10-12T01:52:59.928Z,73.60
2022-10-12T01:56:20.108Z,73.60
2022-10-12T01:59:45.908Z,73.60
2022-10-12T02:02:56.155Z,73.70
2022-10-12T02:06:05.325Z,73.60
2022-10-12T02:09:14.481Z,73.60
2022-10-12T02:12:20.503Z,73.70
2022-10-12T02:15:25.957Z,73.70
2022-10-12T02:18:29.469Z,73.80
2022-10-12T02:21:34.432Z,73.70
2022-10-12T02:24:40.227Z,73.70
2022-10-12T02:27:47.069Z,73.70
2022-10-12T02:31:07.721Z,73.70
2022-10-12T02:34:12.967Z,73.70
2022-10-12T02:37:39.751Z,73.60
2022-10-12T02:40:52.306Z,73.70
2022-10-12T02:44:03.511Z,73.60
2022-10-12T02:47:07.793Z,73.60
2022-10-12T02:50:11.017Z,73.60
2022-10-12T02:53:13.363Z,73.50
2022-10-12T02:56:16.674Z,73.50
2022-10-12T02:59:20.109Z,73.50
2022-10-12T03:02:22.313Z,73.40
2022-10-12T03:05:24.506Z,73.40
2022-10-12T03:08:26.723Z,73.40
2022-10-12T03:11:28.978Z,73.40
2022-10-12T03:14:33.079Z,73.30
2022-10-12T03:17:35.465Z,73.30
2022-10-12T03:20:37.793Z,73.20
2022-10-12T03:23:40.097Z,73.20
2022-10-12T03:26:42.280Z,73.20
2022-10-12T03:29:44.490Z,73.20
2022-10-12T03:32:46.743Z,73.20
2022-10-12T03:35:49.132Z,73.20
2022-10-12T03:38:51.162Z,73.20
2022-10-12T03:41:53.280Z,73.10
2022-10-12T03:44:55.467Z,73.20
2022-10-12T03:48:02.328Z,73.00
2022-10-12T03:51:06.753Z,73.20
2022-10-12T03:54:08.950Z,73.10
2022-10-12T03:57:11.065Z,73.00
2022-10-12T04:00:14.091Z,73.10
2022-10-12T04:03:16.264Z,72.90
2022-10-12T04:06:18.433Z,72.90
2022-10-12T04:09:20.591Z,73.10
2022-10-12T04:12:23.792Z,72.90
2022-10-12T04:15:26.088Z,72.90
2022-10-12T04:18:28.224Z,73.00
2022-10-12T04:21:32.004Z,72.90
2022-10-12T04:24:34.292Z,72.90
2022-10-12T04:27:36.636Z,72.90
2022-10-12T04:30:38.975Z,72.80
2022-10-12T04:33:41.191Z,72.90
2022-10-12T04:36:43.418Z,72.80
2022-10-12T04:39:45.533Z,72.80
2022-10-12T04:42:47.802Z,72.80
2022-10-12T04:45:57.247Z,72.80
2022-10-12T04:48:59.471Z,73.00
2022-10-12T04:52:01.775Z,72.80
2022-10-12T04:55:04.333Z,72.60
2022-10-12T04:58:06.452Z,72.50
2022-10-12T05:01:08.775Z,72.50
2022-10-12T05:04:11.014Z,72.50
2022-10-12T05:07:13.141Z,72.50
2022-10-12T05:10:15.475Z,72.50
2022-10-12T05:13:17.741Z,72.40
2022-10-12T05:16:19.831Z,72.50
2022-10-12T05:19:22.396Z,72.50
2022-10-12T05:22:24.698Z,72.40
2022-10-12T05:25:29.497Z,72.60
2022-10-12T05:28:33.203Z,72.50
2022-10-12T05:31:37.210Z,72.60
2022-10-12T05:34:39.419Z,72.50
2022-10-12T05:37:41.962Z,72.60
2022-10-12T05:40:44.260Z,72.60
2022-10-12T05:43:46.482Z,72.60
2022-10-12T05:46:49.015Z,72.60
2022-10-12T05:49:51.166Z,72.60
2022-10-12T05:52:53.290Z,72.60
2022-10-12T05:56:00.345Z,72.60
2022-10-12T05:59:03.842Z,72.80
2022-10-12T06:02:06.067Z,72.80
2022-10-12T06:05:08.717Z,72.90
2022-10-12T06:08:11.529Z,72.90
2022-10-12T06:11:13.800Z,72.90
2022-10-12T06:14:16.300Z,72.90
2022-10-12T06:17:18.783Z,73.00
2022-10-12T06:20:21.042Z,73.00
2022-10-12T06:23:23.766Z,73.00
2022-10-12T06:26:26.011Z,73.10
2022-10-12T06:29:28.167Z,73.20
2022-10-12T06:32:30.492Z,73.20
2022-10-12T06:35:32.769Z,73.20
2022-10-12T06:38:34.931Z,73.30
2022-10-12T06:41:38.015Z,73.30
2022-10-12T06:44:43.711Z,73.40
2022-10-12T06:47:46.606Z,73.40
2022-10-12T06:50:48.797Z,73.50
2022-10-12T06:53:50.936Z,73.60
2022-10-12T06:56:58.525Z,73.70
2022-10-12T07:00:00.949Z,73.80
2022-10-12T07:03:03.462Z,73.80
2022-10-12T07:06:07.603Z,74.00
2022-10-12T07:09:10.030Z,74.20
2022-10-12T07:12:12.134Z,74.20
2022-10-12T07:15:14.557Z,74.40
2022-10-12T07:18:16.723Z,74.40
2022-10-12T07:21:18.891Z,74.70
2022-10-12T07:24:21.113Z,74.70
2022-10-12T07:27:23.693Z,75.00
2022-10-12T07:30:25.845Z,75.20
2022-10-12T07:33:30.477Z,75.20
2022-10-12T07:36:57.428Z,75.50
2022-10-12T07:39:57.771Z,75.60
2022-10-12T07:43:15.262Z,75.60
2022-10-12T07:46:18.401Z,75.80
2022-10-12T07:49:20.605Z,75.80
2022-10-12T07:52:22.860Z,76.00
2022-10-12T07:55:25.037Z,76.00
2022-10-12T07:58:27.320Z,76.00
2022-10-12T08:01:31.798Z,76.20
2022-10-12T08:04:34.107Z,76.20
2022-10-12T08:07:36.746Z,76.10
2022-10-12T08:10:39.114Z,76.20
2022-10-12T08:13:42.174Z,76.20
2022-10-12T08:16:45.562Z,76.30
2022-10-12T08:19:47.705Z,76.20
2022-10-12T08:22:49.788Z,76.30
2022-10-12T08:25:56.321Z,76.20
2022-10-12T08:28:58.427Z,76.10
2022-10-12T08:32:02.123Z,76.20
2022-10-12T08:35:05.691Z,76.20
2022-10-12T08:38:11.829Z,76.70
2022-10-12T08:41:30.813Z,76.00
2022-10-12T08:45:02.305Z,76.00
2022-10-12T08:48:15.237Z,75.70
2022-10-12T08:51:23.323Z,75.50
2022-10-12T08:54:31.807Z,75.50
2022-10-12T08:57:35.548Z,75.40
2022-10-12T09:00:39.287Z,75.40
2022-10-12T09:04:10.500Z,75.40
2022-10-12T09:07:23.643Z,75.30
2022-10-12T09:10:37.430Z,75.30
2022-10-12T09:14:10.148Z,75.20
2022-10-12T09:18:04.562Z,75.20
2022-10-12T09:21:14.119Z,75.20
2022-10-12T09:24:23.679Z,75.00
2022-10-12T09:27:31.205Z,75.00
2022-10-12T09:30:37.885Z,75.00
2022-10-12T09:34:07.742Z,75.00
2022-10-12T09:37:18.929Z,75.00
2022-10-12T09:40:32.844Z,74.90
2022-10-12T09:43:35.101Z,74.90
2022-10-12T09:46:55.352Z,74.90
2022-10-12T09:50:06.064Z,74.90
2022-10-12T09:53:27.651Z,74.90
2022-10-12T09:56:49.848Z,74.90
2022-10-12T09:59:52.352Z,74.80
2022-10-12T10:02:55.804Z,74.80
2022-10-12T10:06:05.537Z,74.80
2022-10-12T10:09:27.452Z,74.80
2022-10-12T10:12:30.013Z,74.70
2022-10-12T10:15:34.875Z,74.70
2022-10-12T10:18:48.673Z,74.70
2022-10-12T10:21:51.496Z,74.80
2022-10-12T10:25:00.189Z,74.70
2022-10-12T10:28:33.139Z,74.60
2022-10-12T10:31:35.779Z,74.70
2022-10-12T10:34:39.027Z,74.60
2022-10-12T10:37:46.423Z,74.60
2022-10-12T10:40:54.717Z,74.60
2022-10-12T10:43:57.012Z,74.50
2022-10-12T10:47:04.371Z,74.50
2022-10-12T10:50:24.737Z,74.40
2022-10-12T10:53:42.860Z,74.50
2022-10-12T10:56:46.957Z,74.40
2022-10-12T11:00:14.141Z,74.30
2022-10-12T11:03:28.541Z,74.80
2022-10-12T11:06:44.467Z,74.30
2022-10-12T11:09:51.167Z,74.30
2022-10-12T11:12:59.831Z,74.20
2022-10-12T11:16:40.781Z,74.20
2022-10-12T11:20:19.546Z,74.20
2022-10-12T11:23:53.938Z,74.10
2022-10-12T11:27:12.782Z,74.00
2022-10-12T11:30:26.902Z,73.90
2022-10-12T11:33:39.437Z,73.80
2022-10-12T11:36:55.861Z,73.80
2022-10-12T11:40:17.491Z,73.70
2022-10-12T11:43:34.212Z,73.60
2022-10-12T11:46:42.653Z,73.70
2022-10-12T11:50:06.640Z,73.40
2022-10-12T11:53:25.922Z,73.50
2022-10-12T11:56:37.795Z,73.40
2022-10-12T11:59:46.559Z,73.50
2022-10-12T12:02:55.556Z,73.40
2022-10-12T12:06:29.970Z,73.40
2022-10-12T12:09:39.834Z,73.30
2022-10-12T12:13:02.039Z,73.20
2022-10-12T12:16:13.158Z,73.20
2022-10-12T12:19:41.685Z,73.20
2022-10-12T12:22:52.234Z,73.10
2022-10-12T12:26:17.187Z,73.20
2022-10-12T12:29:32.793Z,73.00
2022-10-12T12:32:48.295Z,73.00
2022-10-12T12:36:00.752Z,72.90
2022-10-12T12:39:06.375Z,72.90
2022-10-12T12:42:09.900Z,72.90
2022-10-12T12:45:30.810Z,72.80
2022-10-12T12:48:39.022Z,73.00
2022-10-12T12:51:44.020Z,72.70
2022-10-12T12:55:32.664Z,72.80
2022-10-12T12:59:02.781Z,72.80
2022-10-12T13:02:23.324Z,72.70
2022-10-12T13:05:43.272Z,72.50
2022-10-12T13:09:23.240Z,72.50
2022-10-12T13:12:52.662Z,72.50
2022-10-12T13:16:07.164Z,72.50
2022-10-12T13:19:16.571Z,72.30
2022-10-12T13:22:33.461Z,72.40
2022-10-12T13:25:54.841Z,72.50
2022-10-12T13:29:01.884Z,72.40
2022-10-12T13:32:12.219Z,72.30
2022-10-12T13:35:47.547Z,72.30
2022-10-12T13:39:07.105Z,72.40
2022-10-12T13:42:15.755Z,72.20
2022-10-12T13:45:18.215Z,72.30
2022-10-12T13:48:46.608Z,72.10
2022-10-12T13:51:48.518Z,72.10
2022-10-12T13:54:51.061Z,72.10
2022-10-12T13:57:53.412Z,72.30
2022-10-12T14:00:55.855Z,72.10
2022-10-12T14:04:05.459Z,72.10
2022-10-12T14:07:17.924Z,72.20
2022-10-12T14:10:26.535Z,71.90
2022-10-12T14:13:35.185Z,71.80
2022-10-12T14:16:37.394Z,71.90
2022-10-12T14:19:43.000Z,71.90
2022-10-12T14:22:49.367Z,71.80
2022-10-12T14:25:55.918Z,71.90
2022-10-12T14:28:59.786Z,71.80
2022-10-12T14:32:08.218Z,72.00
2022-10-12T14:35:22.912Z,71.90
2022-10-12T14:38:38.532Z,71.90
2022-10-12T14:41:51.205Z,71.90
2022-10-12T14:44:53.690Z,71.80
2022-10-12T14:47:56.690Z,71.80
2022-10-12T14:50:58.918Z,71.80
2022-10-12T14:54:05.196Z,71.70
2022-10-12T14:57:16.233Z,71.70
2022-10-12T15:00:24.618Z,71.80
2022-10-12T15:03:26.817Z,71.70
2022-10-12T15:06:28.957Z,71.70
2022-10-12T15:09:31.043Z,71.80
2022-10-12T15:12:33.918Z,71.70
2022-10-12T15:15:43.787Z,71.70
2022-10-12T15:18:45.943Z,71.70
2022-10-12T15:21:48.072Z,71.70
2022-10-12T15:24:51.880Z,71.70
2022-10-12T15:27:54.144Z,71.60
2022-10-12T15:31:19.065Z,71.60
2022-10-12T15:34:21.559Z,71.70
2022-10-12T15:37:26.391Z,71.60
2022-10-12T15:40:30.078Z,71.80
2022-10-12T15:43:35.772Z,71.80
2022-10-12T15:46:41.068Z,71.70
2022-10-12T15:49:43.363Z,71.80
2022-10-12T15:52:45.925Z,71.70
2022-10-12T15:55:48.320Z,72.50
2022-10-12T15:58:50.701Z,71.80
2022-10-12T16:01:52.839Z,71.70
2022-10-12T16:04:55.037Z,71.90
2022-10-12T16:07:57.843Z,71.70
2022-10-12T16:11:02.346Z,71.80
2022-10-12T16:14:04.588Z,71.70
2022-10-12T16:17:06.960Z,71.80
2022-10-12T16:20:09.968Z,71.70
2022-10-12T16:23:18.015Z,71.80
2022-10-12T16:26:20.235Z,71.60
2022-10-12T16:29:22.359Z,71.70
2022-10-12T16:32:24.617Z,71.70
2022-10-12T16:35:26.804Z,71.80
2022-10-12T16:38:28.922Z,71.80
2022-10-12T16:41:33.933Z,71.80
2022-10-12T16:44:36.395Z,71.80
2022-10-12T16:47:42.817Z,71.80
2022-10-12T16:50:45.323Z,71.80
2022-10-12T16:53:47.654Z,71.70
2022-10-12T16:56:49.806Z,71.90
2022-10-12T16:59:51.999Z,71.80
2022-10-12T17:02:57.361Z,71.90
2022-10-12T17:06:00.687Z,71.80
2022-10-12T17:09:04.643Z,71.80
2022-10-12T17:12:07.098Z,71.80
2022-10-12T17:15:10.251Z,71.90
2022-10-12T17:18:12.409Z,71.90
2022-10-12T17:21:14.485Z,71.90
2022-10-12T17:24:19.039Z,71.90
2022-10-12T17:27:21.152Z,72.00
2022-10-12T17:30:23.221Z,72.00
2022-10-12T17:33:25.478Z,72.00
2022-10-12T17:36:28.510Z,72.00
2022-10-12T17:39:36.777Z,72.00
2022-10-12T17:42:38.953Z,72.10
2022-10-12T17:45:41.189Z,72.10
2022-10-12T17:48:43.354Z,72.10
2022-10-12T17:51:48.646Z,72.20
2022-10-12T17:54:50.811Z,72.20
2022-10-12T17:57:53.087Z,72.20
2022-10-12T18:00:55.511Z,72.20
2022-10-12T18:04:02.694Z,72.20
2022-10-12T18:07:04.876Z,72.30
2022-10-12T18:10:07.870Z,72.20
2022-10-12T18:13:10.072Z,72.20
2022-10-12T18:16:12.486Z,72.20
2022-10-12T18:19:14.768Z,72.20
2022-10-12T18:22:17.514Z,72.20
2022-10-12T18:25:19.726Z,72.30
2022-10-12T18:28:21.891Z,72.30
2022-10-12T18:31:26.961Z,72.30
2022-10-12T18:34:31.956Z,72.30
2022-10-12T18:37:37.804Z,72.30
2022-10-12T18:40:42.365Z,72.30
2022-10-12T18:43:44.963Z,72.30
2022-10-12T18:46:47.166Z,72.30
2022-10-12T18:49:50.358Z,72.40
2022-10-12T19:10:42.544Z,72.40
2022-10-12T19:13:55.009Z,72.40
2022-10-12T19:16:57.273Z,72.40
2022-10-12T19:20:00.436Z,72.40
2022-10-12T19:23:02.482Z,72.40
2022-10-12T19:26:06.558Z,72.50
2022-10-12T19:29:08.757Z,72.50
2022-10-12T19:32:11.002Z,72.50
2022-10-12T19:35:13.306Z,72.40
2022-10-12T19:38:15.454Z,72.50
2022-10-12T19:41:17.623Z,72.50
2022-10-12T19:44:19.918Z,72.50
2022-10-12T19:47:22.262Z,72.50
2022-10-12T19:50:24.752Z,72.50
2022-10-12T19:53:27.069Z,72.50
2022-10-12T20:00:22.196Z,72.60
2022-10-12T20:03:24.246Z,72.60
2022-10-12T20:06:28.952Z,72.40
2022-10-12T20:09:31.106Z,72.50
2022-10-12T20:12:34.017Z,72.50
2022-10-12T20:15:36.520Z,72.50
2022-10-12T20:18:38.681Z,72.40
2022-10-12T20:21:40.852Z,72.50
2022-10-12T20:24:43.169Z,72.40
2022-10-12T20:27:45.312Z,72.40
2022-10-12T20:31:11.877Z,72.30
2022-10-12T20:34:14.065Z,72.40
2022-10-12T20:37:18.256Z,72.30
2022-10-12T20:40:20.500Z,72.30
2022-10-12T20:43:22.633Z,72.30
2022-10-12T20:46:25.351Z,72.30
2022-10-12T20:49:27.482Z,72.30
2022-10-12T20:52:29.632Z,72.30
2022-10-12T20:55:31.888Z,73.00
2022-10-12T20:58:34.121Z,72.30
2022-10-12T21:01:36.609Z,72.30
2022-10-12T21:04:38.849Z,72.30
2022-10-12T21:07:40.975Z,72.20
2022-10-12T21:10:47.079Z,72.30
2022-10-12T21:13:49.731Z,72.30
2022-10-12T21:16:53.190Z,72.30
2022-10-12T21:19:55.286Z,72.30
2022-10-12T21:22:57.447Z,72.30
2022-10-12T21:25:59.642Z,72.30
2022-10-12T21:29:02.212Z,72.20
2022-10-12T21:32:04.482Z,72.20
2022-10-12T21:35:06.825Z,72.20
2022-10-12T21:38:09.322Z,72.20
2022-10-12T21:41:13.160Z,72.20
2022-10-12T21:44:15.287Z,72.10
2022-10-12T21:47:18.406Z,72.30
2022-10-12T21:50:20.886Z,72.30
2022-10-12T21:53:23.015Z,72.20
2022-10-12T21:56:27.799Z,72.30
2022-10-12T21:59:29.900Z,72.30
2022-10-12T22:02:32.041Z,72.20
2022-10-12T22:05:41.037Z,72.30
2022-10-12T22:08:44.265Z,72.30
2022-10-12T22:11:49.878Z,72.30
2022-10-12T22:14:52.063Z,72.30
2022-10-12T22:17:56.440Z,72.30
2022-10-12T22:21:01.968Z,72.20
2022-10-12T22:24:04.273Z,72.20
2022-10-12T22:27:06.397Z,72.20
2022-10-12T22:30:08.838Z,72.20
2022-10-12T22:33:10.931Z,72.30
2022-10-12T22:40:42.466Z,72.30
2022-10-12T22:43:44.670Z,72.20
2022-10-12T22:46:46.697Z,72.30
2022-10-12T22:49:48.744Z,72.30
2022-10-12T22:52:50.786Z,72.30
2022-10-12T22:56:07.881Z,72.30
2022-10-12T22:59:15.373Z,72.30
2022-10-12T23:02:17.921Z,72.40
2022-10-12T23:05:20.265Z,72.30
2022-10-12T23:08:22.298Z,72.30
2022-10-12T23:11:27.451Z,72.30
2022-10-12T23:14:29.559Z,72.40
2022-10-12T23:17:31.689Z,72.30
2022-10-12T23:20:34.290Z,72.30
2022-10-12T23:23:39.542Z,72.40
2022-10-12T23:26:41.598Z,72.30
2022-10-12T23:29:43.658Z,72.30
2022-10-12T23:32:46.536Z,72.30
2022-10-12T23:35:56.798Z,72.20
2022-10-12T23:39:03.753Z,72.30
2022-10-12T23:42:05.860Z,72.30
2022-10-12T23:45:08.101Z,72.20
2022-10-12T23:48:10.670Z,72.10
2022-10-12T23:51:13.540Z,72.20
2022-10-12T23:54:16.186Z,72.20
2022-10-12T23:57:45.168Z,72.20
